createdAt,value
2022-08-24T00:02:08.036Z,20.80
2022-08-24T00:04:38.815Z,20.80
2022-08-24T00:07:13.822Z,21.10
2022-08-24T00:09:50.638Z,20.80
2022-08-24T00:12:17.755Z,20.70
2022-08-24T00:14:44.915Z,20.60
2022-08-24T00:17:12.301Z,20.60
2022-08-24T00:19:39.537Z,20.60
2022-08-24T00:22:06.455Z,20.60
2022-08-24T00:24:34.011Z,20.60
2022-08-24T00:27:00.720Z,20.70
2022-08-24T00:29:27.431Z,20.70
2022-08-24T00:31:54.544Z,20.70
2022-08-24T00:34:21.472Z,20.70
2022-08-24T00:36:48.400Z,20.60
2022-08-24T00:39:15.126Z,20.60
2022-08-24T00:41:47.789Z,20.60
2022-08-24T00:44:16.797Z,20.60
2022-08-24T00:46:48.729Z,20.50
2022-08-24T00:49:40.559Z,20.50
2022-08-24T00:52:29.460Z,20.40
2022-08-24T00:55:01.498Z,20.40
2022-08-24T00:57:33.840Z,20.40
2022-08-24T01:00:12.804Z,20.40
2022-08-24T01:02:43.759Z,20.40
2022-08-24T01:05:12.284Z,20.40
2022-08-24T01:07:40.544Z,20.30
2022-08-24T01:10:16.292Z,20.30
2022-08-24T01:12:48.116Z,20.20
2022-08-24T01:15:29.057Z,20.20
2022-08-24T01:18:15.254Z,20.10
2022-08-24T01:20:46.278Z,20.10
2022-08-24T01:23:40.469Z,20.10
2022-08-24T01:26:10.717Z,19.90
2022-08-24T01:28:40.549Z,20.00
2022-08-24T01:31:08.476Z,19.90
2022-08-24T01:33:35.219Z,20.00
2022-08-24T01:36:09.641Z,19.90
2022-08-24T01:38:36.441Z,19.90
2022-08-24T01:41:04.701Z,19.80
2022-08-24T01:43:31.716Z,19.80
2022-08-24T01:46:04.037Z,19.70
2022-08-24T01:48:31.421Z,19.70
2022-08-24T01:50:58.165Z,19.80
2022-08-24T01:53:25.450Z,19.80
2022-08-24T01:55:52.169Z,19.80
2022-08-24T01:58:18.879Z,19.70
2022-08-24T02:00:45.901Z,19.70
2022-08-24T02:03:12.795Z,19.60
2022-08-24T02:05:39.603Z,19.60
2022-08-24T02:08:06.358Z,19.60
2022-08-24T02:10:33.778Z,19.50
2022-08-24T02:13:00.830Z,19.50
2022-08-24T02:15:40.413Z,19.50
2022-08-24T02:18:15.306Z,19.50
2022-08-24T02:20:42.952Z,19.50
2022-08-24T02:23:09.622Z,19.40
2022-08-24T02:25:36.676Z,19.40
2022-08-24T02:28:03.936Z,19.40
2022-08-24T02:30:31.616Z,19.40
2022-08-24T02:32:59.842Z,19.40
2022-08-24T02:35:28.181Z,19.30
2022-08-24T02:37:54.873Z,19.30
2022-08-24T02:40:22.190Z,19.40
2022-08-24T02:42:48.894Z,19.30
2022-08-24T02:45:15.995Z,19.30
2022-08-24T02:47:42.994Z,19.30
2022-08-24T02:50:12.670Z,19.30
2022-08-24T02:52:39.913Z,19.30
2022-08-24T02:55:11.345Z,19.30
2022-08-24T02:57:38.731Z,19.20
2022-08-24T03:00:10.391Z,19.20
2022-08-24T03:02:37.994Z,19.20
2022-08-24T03:05:05.565Z,19.20
2022-08-24T03:07:32.294Z,19.20
2022-08-24T03:09:58.995Z,19.20
2022-08-24T03:12:25.677Z,19.20
2022-08-24T03:14:52.525Z,19.20
2022-08-24T03:17:19.242Z,19.20
2022-08-24T03:19:46.549Z,19.20
2022-08-24T03:22:13.324Z,19.20
2022-08-24T03:24:40.100Z,19.20
2022-08-24T03:27:07.034Z,19.20
2022-08-24T03:29:35.281Z,19.20
2022-08-24T03:32:02.749Z,19.10
2022-08-24T03:34:29.454Z,19.10
2022-08-24T03:36:56.188Z,19.10
2022-08-24T03:39:22.945Z,19.20
2022-08-24T03:41:49.700Z,19.00
2022-08-24T03:44:19.157Z,19.10
2022-08-24T03:46:48.325Z,19.00
2022-08-24T03:49:15.383Z,19.00
2022-08-24T03:51:42.260Z,18.90
2022-08-24T03:54:10.879Z,18.90
2022-08-24T03:56:37.825Z,18.90
2022-08-24T03:59:07.593Z,18.90
2022-08-24T04:01:34.427Z,18.90
2022-08-24T04:04:01.154Z,18.90
2022-08-24T04:06:28.187Z,18.90
2022-08-24T04:08:55.620Z,18.90
2022-08-24T04:11:25.817Z,18.80
2022-08-24T04:13:56.646Z,18.80
2022-08-24T04:16:24.365Z,18.70
2022-08-24T04:18:51.631Z,18.80
2022-08-24T04:21:30.237Z,18.80
2022-08-24T04:23:57.585Z,18.80
2022-08-24T04:26:44.749Z,18.90
2022-08-24T04:29:14.736Z,18.90
2022-08-24T04:31:43.020Z,18.80
2022-08-24T04:34:10.777Z,18.70
2022-08-24T04:36:39.180Z,18.80
2022-08-24T04:39:06.076Z,18.80
2022-08-24T04:41:32.746Z,18.70
2022-08-24T04:44:01.541Z,18.70
2022-08-24T04:46:29.392Z,18.60
2022-08-24T04:48:56.332Z,18.70
2022-08-24T04:51:23.003Z,18.70
2022-08-24T04:53:51.720Z,18.70
2022-08-24T04:56:24.060Z,18.70
2022-08-24T04:58:52.335Z,18.70
2022-08-24T05:01:22.257Z,18.70
2022-08-24T05:03:51.389Z,18.70
2022-08-24T05:06:20.015Z,18.70
2022-08-24T05:08:47.530Z,18.70
2022-08-24T05:11:17.404Z,18.80
2022-08-24T05:13:44.901Z,18.60
2022-08-24T05:16:14.449Z,18.60
2022-08-24T05:18:41.758Z,18.60
2022-08-24T05:21:13.886Z,18.60
2022-08-24T05:23:43.415Z,18.60
2022-08-24T05:26:17.083Z,18.60
2022-08-24T05:28:44.593Z,18.60
2022-08-24T05:31:15.297Z,18.70
2022-08-24T05:33:42.226Z,18.70
2022-08-24T05:36:21.065Z,18.70
2022-08-24T05:38:49.685Z,18.70
2022-08-24T05:41:17.421Z,18.60
2022-08-24T05:43:44.504Z,18.70
2022-08-24T05:46:12.273Z,18.70
2022-08-24T05:48:39.139Z,18.70
2022-08-24T05:51:07.676Z,18.70
2022-08-24T05:53:34.986Z,18.70
2022-08-24T05:56:07.796Z,18.70
2022-08-24T05:58:34.923Z,18.80
2022-08-24T06:01:10.306Z,18.80
2022-08-24T06:03:38.677Z,18.90
2022-08-24T06:06:08.570Z,19.00
2022-08-24T06:08:41.725Z,19.00
2022-08-24T06:11:09.208Z,19.00
2022-08-24T06:13:36.605Z,19.10
2022-08-24T06:16:25.652Z,19.10
2022-08-24T06:18:53.820Z,19.10
2022-08-24T06:21:28.166Z,19.10
2022-08-24T06:23:55.948Z,19.20
2022-08-24T06:26:41.498Z,19.20
2022-08-24T06:29:09.138Z,19.30
2022-08-24T06:31:41.954Z,19.30
2022-08-24T06:34:10.035Z,19.30
2022-08-24T06:36:36.824Z,19.40
2022-08-24T06:39:06.730Z,19.40
2022-08-24T06:41:36.220Z,19.50
2022-08-24T06:44:03.303Z,19.50
2022-08-24T06:46:32.838Z,19.50
2022-08-24T06:49:00.291Z,19.60
2022-08-24T06:51:27.023Z,19.60
2022-08-24T06:53:56.095Z,19.70
2022-08-24T06:56:23.022Z,19.70
2022-08-24T06:58:50.084Z,19.80
2022-08-24T07:01:20.346Z,19.80
2022-08-24T07:03:47.271Z,19.90
2022-08-24T07:06:14.882Z,19.90
2022-08-24T07:08:43.395Z,20.00
2022-08-24T07:11:11.519Z,20.00
2022-08-24T07:13:38.728Z,20.10
2022-08-24T07:16:05.758Z,20.10
2022-08-24T07:18:32.791Z,20.20
2022-08-24T07:21:03.810Z,20.20
2022-08-24T07:23:41.072Z,20.30
2022-08-24T07:26:20.863Z,20.30
2022-08-24T07:28:59.470Z,20.40
2022-08-24T07:31:26.704Z,20.40
2022-08-24T07:33:53.443Z,20.50
2022-08-24T07:36:22.172Z,20.50
2022-08-24T07:38:52.279Z,20.60
2022-08-24T07:41:40.338Z,20.60
2022-08-24T07:44:08.125Z,20.60
2022-08-24T07:46:35.607Z,20.60
2022-08-24T07:49:10.961Z,20.70
2022-08-24T07:51:38.894Z,20.70
2022-08-24T07:54:12.196Z,20.80
2022-08-24T07:56:40.448Z,20.80
2022-08-24T07:59:11.045Z,20.90
2022-08-24T08:01:39.965Z,20.90
2022-08-24T08:04:06.777Z,21.00
2022-08-24T08:06:33.512Z,21.00
2022-08-24T08:09:00.199Z,21.10
2022-08-24T08:11:26.859Z,21.10
2022-08-24T08:13:54.322Z,21.10
2022-08-24T08:16:21.754Z,21.20
2022-08-24T08:18:52.411Z,21.30
2022-08-24T08:21:51.054Z,21.30
2022-08-24T08:24:20.690Z,21.40
2022-08-24T08:26:52.224Z,21.40
2022-08-24T08:29:20.113Z,21.50
2022-08-24T08:31:47.389Z,21.60
2022-08-24T08:34:14.263Z,21.50
2022-08-24T08:36:41.702Z,21.60
2022-08-24T08:39:10.892Z,21.70
2022-08-24T08:41:46.708Z,21.70
2022-08-24T08:44:33.196Z,21.70
2022-08-24T08:47:21.341Z,21.80
2022-08-24T08:50:05.383Z,21.90
2022-08-24T08:53:06.237Z,21.90
2022-08-24T08:56:04.629Z,22.00
2022-08-24T08:58:57.428Z,22.10
2022-08-24T09:01:59.104Z,22.10
2022-08-24T09:04:59.683Z,22.20
2022-08-24T09:07:48.899Z,22.30
2022-08-24T09:10:40.577Z,22.30
2022-08-24T09:13:35.297Z,22.30
2022-08-24T09:16:31.588Z,22.40
2022-08-24T09:19:13.527Z,22.40
2022-08-24T09:22:14.590Z,22.50
2022-08-24T09:24:59.011Z,22.50
2022-08-24T09:27:32.569Z,22.60
2022-08-24T09:30:14.883Z,22.70
2022-08-24T09:33:03.268Z,22.80
2022-08-24T09:35:45.071Z,22.80
2022-08-24T09:38:40.001Z,22.90
2022-08-24T09:41:21.764Z,22.90
2022-08-24T09:44:14.217Z,23.00
2022-08-24T09:47:02.047Z,23.10
2022-08-24T09:50:16.319Z,23.10
2022-08-24T09:53:01.904Z,23.20
2022-08-24T09:55:34.572Z,23.30
2022-08-24T09:58:29.465Z,23.40
2022-08-24T10:01:02.433Z,23.40
2022-08-24T10:03:38.354Z,23.50
2022-08-24T10:06:16.613Z,23.60
2022-08-24T10:09:14.411Z,23.60
2022-08-24T10:12:02.549Z,23.70
2022-08-24T10:14:51.113Z,23.80
2022-08-24T10:17:40.772Z,23.90
2022-08-24T10:20:25.559Z,24.00
2022-08-24T10:23:17.927Z,24.00
2022-08-24T10:25:56.957Z,24.10
2022-08-24T10:28:45.213Z,24.10
2022-08-24T10:31:19.132Z,24.20
2022-08-24T10:33:51.610Z,24.40
2022-08-24T10:36:30.770Z,24.40
2022-08-24T10:39:22.117Z,24.50
2022-08-24T10:42:37.533Z,24.50
2022-08-24T10:45:26.334Z,24.60
2022-08-24T10:48:45.449Z,24.70
2022-08-24T10:51:55.162Z,24.80
2022-08-24T10:54:23.503Z,24.80
2022-08-24T10:57:12.287Z,25.00
2022-08-24T11:00:18.185Z,25.00
2022-08-24T11:03:04.277Z,25.10
2022-08-24T11:05:40.961Z,25.30
2022-08-24T11:08:09.496Z,25.40
2022-08-24T11:10:40.116Z,25.40
2022-08-24T11:13:25.825Z,25.40
2022-08-24T11:15:55.740Z,25.50
2022-08-24T11:18:23.117Z,25.60
2022-08-24T11:20:52.661Z,25.70
2022-08-24T11:23:31.035Z,25.70
2022-08-24T11:26:03.770Z,25.80
2022-08-24T11:28:38.962Z,25.80
2022-08-24T11:31:11.762Z,25.90
2022-08-24T11:33:49.674Z,26.00
2022-08-24T11:36:23.501Z,26.10
2022-08-24T11:39:09.525Z,26.10
2022-08-24T11:42:01.308Z,26.20
2022-08-24T11:44:27.963Z,26.20
2022-08-24T11:47:15.378Z,26.30
2022-08-24T11:50:27.642Z,26.30
2022-08-24T11:53:14.052Z,26.40
2022-08-24T11:56:03.318Z,26.50
2022-08-24T11:58:52.441Z,26.50
2022-08-24T12:01:35.638Z,26.60
2022-08-24T12:04:29.130Z,26.80
2022-08-24T12:07:20.202Z,26.80
2022-08-24T12:09:58.641Z,27.10
2022-08-24T12:12:35.277Z,27.20
2022-08-24T12:15:17.841Z,27.20
2022-08-24T12:18:02.805Z,27.50
2022-08-24T12:20:38.461Z,27.50
2022-08-24T12:23:20.633Z,27.50
2022-08-24T12:26:03.375Z,27.50
2022-08-24T12:28:53.661Z,27.50
2022-08-24T12:31:36.194Z,27.60
2022-08-24T12:34:11.495Z,27.60
2022-08-24T12:36:53.324Z,27.60
2022-08-24T12:39:25.829Z,27.60
2022-08-24T12:42:05.280Z,27.60
2022-08-24T12:44:49.357Z,27.60
2022-08-24T12:47:32.922Z,27.70
2022-08-24T12:50:10.350Z,27.70
2022-08-24T12:52:57.674Z,27.70
2022-08-24T12:55:53.905Z,27.70
2022-08-24T12:58:53.862Z,27.80
2022-08-24T13:01:26.421Z,27.90
2022-08-24T13:04:07.421Z,27.80
2022-08-24T13:07:01.731Z,27.70
2022-08-24T13:09:34.970Z,27.70
2022-08-24T13:12:30.644Z,27.80
2022-08-24T13:15:19.755Z,27.90
2022-08-24T13:17:47.104Z,27.80
2022-08-24T13:20:31.385Z,27.80
2022-08-24T13:23:13.621Z,27.80
2022-08-24T13:26:17.785Z,27.90
2022-08-24T13:28:47.768Z,27.80
2022-08-24T13:31:18.408Z,27.80
2022-08-24T13:33:51.212Z,27.80
2022-08-24T13:36:42.600Z,27.80
2022-08-24T13:39:18.674Z,27.90
2022-08-24T13:42:26.258Z,27.90
2022-08-24T13:45:23.742Z,28.10
2022-08-24T13:48:08.936Z,28.00
2022-08-24T13:50:41.675Z,27.90
2022-08-24T13:53:26.979Z,27.90
2022-08-24T13:56:33.236Z,27.90
2022-08-24T13:59:18.170Z,28.00
2022-08-24T14:02:21.169Z,28.00
2022-08-24T14:04:57.089Z,28.00
2022-08-24T14:07:48.575Z,28.00
2022-08-24T14:10:42.168Z,28.00
2022-08-24T14:13:25.881Z,27.90
2022-08-24T14:16:23.911Z,28.10
2022-08-24T14:19:06.805Z,28.10
2022-08-24T14:21:44.951Z,28.10
2022-08-24T14:24:25.666Z,28.10
2022-08-24T14:27:02.002Z,28.10
2022-08-24T14:29:31.013Z,28.10
2022-08-24T14:32:11.922Z,28.10
2022-08-24T14:34:44.896Z,28.20
2022-08-24T14:37:14.494Z,28.20
2022-08-24T14:39:58.205Z,28.20
2022-08-24T14:42:58.531Z,28.20
2022-08-24T14:46:02.912Z,28.20
2022-08-24T14:48:50.718Z,28.20
2022-08-24T14:51:46.719Z,28.10
2022-08-24T14:54:25.283Z,28.10
2022-08-24T14:57:27.400Z,28.10
2022-08-24T15:00:19.365Z,28.10
2022-08-24T15:03:12.096Z,28.10
2022-08-24T15:06:03.822Z,28.10
2022-08-24T15:08:47.512Z,28.10
2022-08-24T15:11:21.298Z,28.10
2022-08-24T15:13:54.363Z,28.10
2022-08-24T15:16:54.221Z,28.10
2022-08-24T15:19:35.596Z,28.10
2022-08-24T15:22:07.670Z,28.10
2022-08-24T15:25:06.001Z,28.10
2022-08-24T15:27:48.127Z,28.20
2022-08-24T15:30:23.595Z,28.30
2022-08-24T15:33:07.680Z,28.30
2022-08-24T15:35:36.189Z,28.30
2022-08-24T15:38:23.369Z,28.30
2022-08-24T15:41:14.773Z,28.30
2022-08-24T15:43:47.101Z,28.30
2022-08-24T15:46:18.385Z,28.30
2022-08-24T15:48:47.914Z,28.30
2022-08-24T15:51:35.937Z,28.30
2022-08-24T15:54:31.377Z,28.30
2022-08-24T15:57:01.670Z,28.50
2022-08-24T15:59:39.374Z,28.50
2022-08-24T16:02:30.342Z,28.50
2022-08-24T16:05:21.422Z,28.60
2022-08-24T16:08:02.768Z,28.60
2022-08-24T16:10:34.572Z,28.60
2022-08-24T16:13:19.041Z,28.50
2022-08-24T16:16:11.031Z,28.70
2022-08-24T16:18:53.202Z,28.70
2022-08-24T16:21:47.462Z,28.60
2022-08-24T16:24:28.384Z,28.60
2022-08-24T16:26:59.609Z,28.60
2022-08-24T16:29:39.000Z,28.60
2022-08-24T16:32:30.736Z,28.50
2022-08-24T16:35:14.433Z,28.50
2022-08-24T16:37:41.121Z,28.50
2022-08-24T16:40:09.136Z,28.50
2022-08-24T16:42:36.869Z,28.50
2022-08-24T16:45:10.125Z,28.50
2022-08-24T16:47:37.457Z,28.50
2022-08-24T16:50:05.788Z,28.40
2022-08-24T16:52:32.500Z,28.40
2022-08-24T16:55:01.390Z,28.30
2022-08-24T16:57:30.960Z,28.30
2022-08-24T16:59:57.774Z,28.20
2022-08-24T17:02:27.447Z,28.20
2022-08-24T17:04:54.758Z,28.10
2022-08-24T17:07:26.825Z,28.10
2022-08-24T17:09:55.857Z,28.00
2022-08-24T17:12:23.477Z,27.90
2022-08-24T17:14:50.133Z,27.90
2022-08-24T17:17:21.558Z,27.80
2022-08-24T17:19:54.415Z,27.70
2022-08-24T17:22:22.885Z,27.70
2022-08-24T17:24:50.284Z,27.60
2022-08-24T17:27:18.609Z,27.50
2022-08-24T17:29:45.962Z,27.50
2022-08-24T17:32:13.106Z,27.40
2022-08-24T17:34:40.886Z,27.30
2022-08-24T17:37:08.349Z,27.30
2022-08-24T17:39:35.151Z,27.20
2022-08-24T17:42:03.500Z,27.10
2022-08-24T17:44:33.512Z,27.10
2022-08-24T17:47:01.188Z,27.00
2022-08-24T17:49:28.094Z,26.90
2022-08-24T17:51:55.191Z,26.90
2022-08-24T17:54:22.511Z,26.80
2022-08-24T17:56:50.777Z,26.70
2022-08-24T17:59:25.742Z,26.60
2022-08-24T18:02:12.565Z,26.60
2022-08-24T18:04:40.359Z,26.50
2022-08-24T18:07:11.897Z,26.40
2022-08-24T18:09:50.293Z,26.30
2022-08-24T18:12:19.527Z,26.20
2022-08-24T18:14:46.459Z,26.20
2022-08-24T18:17:21.088Z,26.10
2022-08-24T18:19:52.769Z,26.00
2022-08-24T18:22:19.537Z,25.90
2022-08-24T18:24:46.240Z,25.90
2022-08-24T18:27:24.140Z,25.80
2022-08-24T18:30:01.400Z,25.60
2022-08-24T18:32:31.203Z,25.60
2022-08-24T18:34:58.989Z,25.50
2022-08-24T18:37:25.880Z,25.40
2022-08-24T18:39:52.694Z,25.30
2022-08-24T18:42:19.682Z,25.30
2022-08-24T18:44:47.146Z,25.20
2022-08-24T18:47:13.869Z,25.20
2022-08-24T18:49:40.549Z,25.10
2022-08-24T18:52:10.273Z,25.00
2022-08-24T18:54:41.477Z,24.90
2022-08-24T18:57:08.723Z,24.80
2022-08-24T18:59:36.578Z,24.70
2022-08-24T19:02:35.429Z,24.70
2022-08-24T19:05:19.168Z,24.60
2022-08-24T19:07:49.265Z,24.50
2022-08-24T19:10:19.265Z,24.40
2022-08-24T19:12:49.569Z,24.30
2022-08-24T19:15:37.813Z,24.40
2022-08-24T19:18:05.459Z,24.30
2022-08-24T19:20:33.720Z,24.30
2022-08-24T19:23:10.584Z,24.30
2022-08-24T19:25:39.994Z,24.20
2022-08-24T19:28:07.253Z,24.20
2022-08-24T19:30:34.428Z,24.20
2022-08-24T19:33:02.146Z,24.20
2022-08-24T19:35:32.631Z,24.10
2022-08-24T19:37:59.412Z,24.00
2022-08-24T19:40:26.485Z,24.10
2022-08-24T19:42:54.651Z,24.00
2022-08-24T19:45:43.434Z,24.00
2022-08-24T19:48:11.910Z,24.00
2022-08-24T19:50:38.855Z,24.00
2022-08-24T19:53:06.729Z,23.90
2022-08-24T19:55:33.784Z,23.80
2022-08-24T19:58:23.657Z,23.80
2022-08-24T20:00:57.419Z,23.80
2022-08-24T20:03:24.652Z,23.70
2022-08-24T20:05:51.391Z,23.60
2022-08-24T20:08:19.161Z,23.50
2022-08-24T20:10:45.866Z,23.50
2022-08-24T20:13:12.815Z,23.40
2022-08-24T20:15:39.585Z,23.40
2022-08-24T20:18:06.417Z,23.40
2022-08-24T20:20:33.175Z,23.40
2022-08-24T20:23:06.101Z,23.30
2022-08-24T20:25:39.455Z,23.30
2022-08-24T20:28:28.211Z,23.30
2022-08-24T20:30:53.973Z,23.30
2022-08-24T20:33:21.291Z,23.20
2022-08-24T20:35:47.995Z,23.20
2022-08-24T20:38:18.266Z,23.10
2022-08-24T20:40:45.126Z,23.20
2022-08-24T20:43:12.712Z,23.10
2022-08-24T20:45:41.266Z,23.10
2022-08-24T20:48:11.867Z,23.10
2022-08-24T20:50:38.991Z,23.10
2022-08-24T20:53:06.223Z,23.00
2022-08-24T20:55:33.284Z,23.00
2022-08-24T20:58:03.061Z,23.00
2022-08-24T21:00:30.161Z,23.00
2022-08-24T21:02:58.090Z,23.00
2022-08-24T21:05:25.476Z,22.90
2022-08-24T21:07:52.221Z,22.90
2022-08-24T21:10:24.855Z,22.90
2022-08-24T21:12:53.707Z,22.80
2022-08-24T21:15:22.366Z,22.80
2022-08-24T21:17:49.348Z,22.80
2022-08-24T21:20:16.486Z,22.80
2022-08-24T21:22:45.937Z,22.90
2022-08-24T21:25:14.475Z,22.80
2022-08-24T21:27:43.994Z,22.80
2022-08-24T21:30:13.776Z,22.70
2022-08-24T21:32:59.328Z,22.60
2022-08-24T21:35:26.361Z,22.50
2022-08-24T21:37:53.294Z,22.60
2022-08-24T21:40:21.813Z,22.50
2022-08-24T21:42:49.195Z,22.50
2022-08-24T21:45:16.178Z,22.50
2022-08-24T21:47:43.294Z,22.50
2022-08-24T21:50:10.340Z,22.50
2022-08-24T21:52:37.608Z,22.50
2022-08-24T21:55:05.596Z,22.50
2022-08-24T21:57:32.266Z,22.40
2022-08-24T21:59:59.152Z,22.40
2022-08-24T22:02:26.245Z,22.30
2022-08-24T22:04:56.707Z,22.30
2022-08-24T22:07:26.683Z,22.30
2022-08-24T22:09:53.536Z,22.20
2022-08-24T22:12:20.193Z,22.10
2022-08-24T22:14:46.866Z,22.00
2022-08-24T22:17:13.620Z,22.00
2022-08-24T22:19:40.366Z,22.00
2022-08-24T22:22:07.045Z,22.00
2022-08-24T22:24:33.865Z,22.00
2022-08-24T22:27:00.536Z,22.00
2022-08-24T22:29:27.305Z,21.90
2022-08-24T22:31:54.054Z,21.80
2022-08-24T22:34:21.306Z,21.90
2022-08-24T22:36:48.799Z,21.80
2022-08-24T22:39:16.446Z,22.20
2022-08-24T22:41:43.943Z,21.80
2022-08-24T22:44:20.130Z,21.80
2022-08-24T22:46:56.185Z,21.90
2022-08-24T22:49:27.883Z,21.70
2022-08-24T22:51:54.827Z,21.90
2022-08-24T22:54:23.051Z,21.80
2022-08-24T22:56:53.030Z,21.80
2022-08-24T22:59:26.609Z,21.70
2022-08-24T23:01:55.633Z,21.60
2022-08-24T23:04:29.243Z,21.50
2022-08-24T23:06:56.031Z,21.50
2022-08-24T23:09:23.391Z,21.50
2022-08-24T23:11:52.284Z,21.40
2022-08-24T23:14:19.847Z,21.30
2022-08-24T23:16:49.892Z,21.20
2022-08-24T23:19:37.263Z,21.30
2022-08-24T23:22:06.177Z,21.20
2022-08-24T23:24:33.572Z,21.20
2022-08-24T23:27:01.838Z,21.30
2022-08-24T23:29:28.666Z,21.10
2022-08-24T23:31:55.387Z,21.20
2022-08-24T23:34:22.572Z,21.10
2022-08-24T23:36:50.199Z,21.10
2022-08-24T23:39:17.313Z,21.20
2022-08-24T23:41:46.325Z,21.10
2022-08-24T23:44:20.690Z,21.00
2022-08-24T23:46:47.847Z,21.00
2022-08-24T23:49:16.942Z,20.90
2022-08-24T23:51:43.786Z,20.90
2022-08-24T23:54:10.888Z,20.90
2022-08-24T23:56:40.161Z,20.90
2022-08-24T23:59:10.699Z,20.90
